UAE8U KJFK-OMDB
Flight info
| Callsign | UAE8U |
|---|---|
| Flight time | N/A |
| Altitude | 31000 |
| Route | GREKI DCT JUDDS DCT MARTN DCT TOPPS N635A RIKAL/M085F320 NATR NETKI/N0487F330 DCT BOFUM Q37 DONAX DCT KEPAD L15 FINMA DCT CHT DCT ITVIP DCT KONAN DCT KOK UL607 FERDI/N0482F350 DCT REMBA DCT SPI DCT ULNOK DCT VIBOM DCT NOMBO DCT RIDAR DCT RADIZ DCT NEMEK DCT ELTIB DCT GLOMY DCT PETAK DCT DIMIS DCT SALUN N705 MMA P751 DASUM Y234 FYM M872 BOPOB/N0485F370 M872 BDB Y214 RAPMA DCT KUVSO DCT KATIT DCT PEKEM M628 RIGIL G783 ELUDA/N0500F350 G783 ASPED Q308 KIPOK Q568 IMPED |
| Aircraft | B77W/H-SDE1E2E3FGHIJ2J3J4J5M1RWXY/LB1D1 |
Departure
| Time | 2026-05-09 03:36 |
|---|---|
| Airport | John F. Kennedy International Airport (KJFK) |
Arrival
| Time | N/A |
|---|---|
| Airport | Dubai International Airport (OMDB) |
| Time | Latitude | Longitude | Altitude | Speed | Heading |
|---|---|---|---|---|---|
| 2026-05-09 03:00 | 40.64198 | -73.77882 | 27 ft | 0 kts | 26° |
| 2026-05-09 03:22 | 40.64189 | -73.77888 | 27 ft | 3 kts | 26° |
| 2026-05-09 03:22 | 40.64171 | -73.77899 | 26 ft | 3 kts | 26° |
| 2026-05-09 03:22 | 40.64154 | -73.77912 | 26 ft | 3 kts | 38° |
| 2026-05-09 03:22 | 40.64139 | -73.77930 | 26 ft | 3 kts | 54° |
| 2026-05-09 03:23 | 40.64129 | -73.77952 | 25 ft | 3 kts | 63° |
| 2026-05-09 03:23 | 40.64120 | -73.77974 | 27 ft | 3 kts | 59° |
| 2026-05-09 03:23 | 40.64109 | -73.77994 | 27 ft | 3 kts | 35° |
| 2026-05-09 03:23 | 40.64093 | -73.78003 | 25 ft | 3 kts | 354° |
| 2026-05-09 03:24 | 40.64075 | -73.77996 | 25 ft | 3 kts | 331° |
| 2026-05-09 03:24 | 40.64063 | -73.77988 | 25 ft | 1 kts | 331° |
| 2026-05-09 03:24 | 40.64049 | -73.77976 | 26 ft | 3 kts | 317° |
| 2026-05-09 03:24 | 40.64036 | -73.77957 | 25 ft | 3 kts | 297° |
| 2026-05-09 03:25 | 40.64028 | -73.77933 | 26 ft | 3 kts | 290° |
| 2026-05-09 03:25 | 40.64020 | -73.77908 | 25 ft | 3 kts | 297° |
| 2026-05-09 03:25 | 40.64010 | -73.77887 | 24 ft | 3 kts | 322° |
| 2026-05-09 03:25 | 40.63993 | -73.77873 | 25 ft | 3 kts | 330° |
| 2026-05-09 03:26 | 40.63976 | -73.77860 | 26 ft | 3 kts | 330° |
| 2026-05-09 03:26 | 40.63959 | -73.77847 | 26 ft | 2 kts | 330° |
| 2026-05-09 03:26 | 40.63949 | -73.77841 | 26 ft | 2 kts | 326° |
| 2026-05-09 03:26 | 40.63935 | -73.77824 | 25 ft | 3 kts | 295° |
| 2026-05-09 03:27 | 40.63931 | -73.77801 | 25 ft | 3 kts | 263° |
| 2026-05-09 03:27 | 40.63936 | -73.77776 | 24 ft | 2 kts | 243° |
| 2026-05-09 03:27 | 40.63941 | -73.77763 | 25 ft | 2 kts | 241° |
| 2026-05-09 03:27 | 40.63951 | -73.77740 | 25 ft | 3 kts | 241° |
| 2026-05-09 03:28 | 40.63957 | -73.77725 | 25 ft | 0 kts | 241° |
| 2026-05-09 03:28 | 40.63957 | -73.77724 | 25 ft | 0 kts | 241° |
| 2026-05-09 03:30 | 40.63949 | -73.77744 | 25 ft | 10 kts | 241° |
| 2026-05-09 03:31 | 40.63894 | -73.77875 | 28 ft | 13 kts | 240° |
| 2026-05-09 03:31 | 40.63816 | -73.77922 | 28 ft | 14 kts | 174° |
| 2026-05-09 03:31 | 40.63684 | -73.77902 | 28 ft | 28 kts | 173° |
| 2026-05-09 03:31 | 40.63529 | -73.77833 | 27 ft | 20 kts | 178° |
| 2026-05-09 03:32 | 40.63408 | -73.77906 | 29 ft | 19 kts | 208° |
| 2026-05-09 03:32 | 40.63347 | -73.77893 | 30 ft | 9 kts | 124° |
| 2026-05-09 03:32 | 40.63284 | -73.77754 | 32 ft | 28 kts | 121° |
| 2026-05-09 03:32 | 40.63173 | -73.77510 | 34 ft | 29 kts | 121° |
| 2026-05-09 03:33 | 40.63070 | -73.77283 | 32 ft | 29 kts | 121° |
| 2026-05-09 03:33 | 40.62998 | -73.77124 | 29 ft | 16 kts | 121° |
| 2026-05-09 03:33 | 40.62947 | -73.77085 | 28 ft | 9 kts | 201° |
| 2026-05-09 03:33 | 40.62899 | -73.77124 | 29 ft | 0 kts | 211° |
| 2026-05-09 03:34 | 40.62895 | -73.77127 | 29 ft | 3 kts | 211° |
| 2026-05-09 03:34 | 40.62843 | -73.77168 | 28 ft | 12 kts | 211° |
| 2026-05-09 03:34 | 40.62814 | -73.77206 | 28 ft | 5 kts | 266° |
| 2026-05-09 03:35 | 40.62818 | -73.77215 | 28 ft | 0 kts | 300° |
| 2026-05-09 03:35 | 40.62823 | -73.77227 | 28 ft | 8 kts | 300° |
| 2026-05-09 03:35 | 40.62949 | -73.77506 | 32 ft | 71 kts | 301° |
| 2026-05-09 03:36 | 40.63326 | -73.78338 | 27 ft | 139 kts | 301° |
| 2026-05-09 03:36 | 40.63927 | -73.79664 | 32 ft | 195 kts | 301° |
| 2026-05-09 03:36 | 40.64656 | -73.81263 | 368 ft | 207 kts | 301° |
| 2026-05-09 03:36 | 40.65413 | -73.82902 | 889 ft | 210 kts | 300° |
| 2026-05-09 03:37 | 40.65929 | -73.84683 | 1380 ft | 210 kts | 270° |
| 2026-05-09 03:37 | 40.65769 | -73.85912 | 1544 ft | 210 kts | 241° |
| 2026-05-09 03:37 | 40.64234 | -73.87321 | 1970 ft | 206 kts | 193° |
| 2026-05-09 03:37 | 40.63303 | -73.87573 | 2259 ft | 207 kts | 196° |
| 2026-05-09 03:38 | 40.61895 | -73.88065 | 2608 ft | 211 kts | 200° |
| 2026-05-09 03:38 | 40.60481 | -73.88607 | 3034 ft | 212 kts | 198° |
| 2026-05-09 03:38 | 40.58978 | -73.88592 | 3261 ft | 229 kts | 166° |
| 2026-05-09 03:38 | 40.57552 | -73.87492 | 3383 ft | 252 kts | 134° |
| 2026-05-09 03:39 | 40.56769 | -73.85374 | 3533 ft | 269 kts | 102° |
| 2026-05-09 03:39 | 40.56539 | -73.82858 | 3689 ft | 285 kts | 86° |
| 2026-05-09 03:39 | 40.57085 | -73.80356 | 4026 ft | 290 kts | 52° |
| 2026-05-09 03:39 | 40.58550 | -73.78599 | 4407 ft | 285 kts | 20° |
| 2026-05-09 03:40 | 40.60372 | -73.77619 | 4896 ft | 285 kts | 14° |
| 2026-05-09 03:40 | 40.62237 | -73.76724 | 5564 ft | 284 kts | 13° |
| 2026-05-09 03:40 | 40.64112 | -73.75824 | 6112 ft | 289 kts | 12° |
| 2026-05-09 03:40 | 40.66008 | -73.74900 | 6672 ft | 292 kts | 13° |
| 2026-05-09 03:41 | 40.67897 | -73.73961 | 7211 ft | 296 kts | 13° |
| 2026-05-09 03:41 | 40.69827 | -73.72985 | 7778 ft | 298 kts | 13° |
| 2026-05-09 03:41 | 40.71787 | -73.71980 | 8372 ft | 299 kts | 13° |
| 2026-05-09 03:41 | 40.73732 | -73.70973 | 8945 ft | 301 kts | 13° |
| 2026-05-09 03:42 | 40.75695 | -73.69951 | 9463 ft | 305 kts | 13° |
| 2026-05-09 03:42 | 40.77650 | -73.68928 | 9990 ft | 307 kts | 13° |
| 2026-05-09 03:42 | 40.79658 | -73.67877 | 10336 ft | 317 kts | 13° |
| 2026-05-09 03:42 | 40.81774 | -73.66797 | 10481 ft | 334 kts | 13° |
| 2026-05-09 03:43 | 40.84021 | -73.65732 | 10642 ft | 351 kts | 13° |
| 2026-05-09 03:43 | 40.86373 | -73.64607 | 10803 ft | 368 kts | 14° |
| 2026-05-09 03:43 | 40.88813 | -73.63393 | 11164 ft | 380 kts | 14° |
| 2026-05-09 03:43 | 40.91289 | -73.62115 | 11716 ft | 386 kts | 15° |
| 2026-05-09 03:44 | 40.93792 | -73.60794 | 12429 ft | 388 kts | 15° |
| 2026-05-09 03:44 | 40.96307 | -73.59450 | 13194 ft | 390 kts | 15° |
| 2026-05-09 03:44 | 40.98821 | -73.58099 | 13920 ft | 392 kts | 15° |
| 2026-05-09 03:44 | 41.01363 | -73.56731 | 14524 ft | 396 kts | 15° |
| 2026-05-09 03:45 | 41.03936 | -73.55346 | 15026 ft | 404 kts | 15° |
| 2026-05-09 03:45 | 41.06583 | -73.53925 | 15360 ft | 415 kts | 15° |
| 2026-05-09 03:45 | 41.09254 | -73.52486 | 15783 ft | 423 kts | 15° |
| 2026-05-09 03:45 | 41.11993 | -73.51005 | 16358 ft | 427 kts | 15° |
| 2026-05-09 03:46 | 41.14751 | -73.49509 | 16980 ft | 430 kts | 15° |
| 2026-05-09 03:46 | 41.17447 | -73.48047 | 17554 ft | 434 kts | 15° |
| 2026-05-09 03:46 | 41.20342 | -73.46478 | 18109 ft | 438 kts | 15° |